Time;durP1;ratioP1;P1;durP2;ratioP2;P2;SDS_P1;SDS_P2;PMS_P1;PMS_P2;Temp;Humidity;BMP_temperature;BMP_pressure;BME280_temperature;BME280_humidity;BME280_pressure;Samples;Min_cycle;Max_cycle;Signal;HPM_P1;HPM_P2
2022/07/02 00:00:02;;;;;;;3.42;1.00;;;;;;;14.22;68.42;101511.50;4978604;28;20106;-86
2022/07/02 00:02:33;;;;;;;2.15;0.63;;;;;;;14.21;68.58;101513.25;4990438;28;20043;-87
2022/07/02 00:05:04;;;;;;;4.13;1.15;;;;;;;14.23;68.43;101514.09;4944992;28;20125;-88
2022/07/02 00:07:32;;;;;;;0.98;0.98;;;;;;;14.20;68.51;101514.13;4944056;28;20562;-87
2022/07/02 00:10:00;;;;;;;2.35;0.82;;;;;;;14.19;68.55;101503.63;4945607;28;20050;-87
2022/07/02 00:12:29;;;;;;;1.88;0.90;;;;;;;14.18;68.74;101504.50;4976201;28;20137;-88
2022/07/02 00:15:00;;;;;;;1.42;0.90;;;;;;;14.17;68.63;101503.66;4960748;28;20990;-87
2022/07/02 00:17:28;;;;;;;2.80;0.82;;;;;;;14.17;68.76;101508.03;4945995;28;20401;-87
2022/07/02 00:19:55;;;;;;;1.38;1.10;;;;;;;14.12;69.09;101500.19;4960647;28;20932;-88
2022/07/02 00:22:28;;;;;;;1.10;0.80;;;;;;;14.12;69.08;101496.66;4944379;28;20061;-88
2022/07/02 00:24:55;;;;;;;1.65;0.75;;;;;;;14.10;69.43;101496.69;4958334;28;20134;-88
2022/07/02 00:27:23;;;;;;;1.77;0.50;;;;;;;14.07;69.42;101494.09;4961174;28;20053;-88
2022/07/02 00:29:59;;;;;;;1.77;1.02;;;;;;;14.04;69.28;101492.38;4961552;28;20569;-87
2022/07/02 00:32:37;;;;;;;2.97;0.90;;;;;;;14.00;69.65;101489.75;4963119;28;20066;-88
2022/07/02 00:35:11;;;;;;;0.80;0.80;;;;;;;13.98;70.27;101491.56;4946848;28;20055;-87
2022/07/02 00:37:39;;;;;;;2.03;1.10;;;;;;;13.96;70.21;101494.22;4966676;28;20061;-87
2022/07/02 00:40:10;;;;;;;1.40;0.85;;;;;;;13.92;70.39;101494.25;4946435;28;20049;-87
2022/07/02 00:42:39;;;;;;;0.57;0.50;;;;;;;13.89;70.12;101495.16;4963312;28;20047;-86
2022/07/02 00:45:17;;;;;;;3.65;1.00;;;;;;;13.87;70.32;101500.44;4959538;28;20089;-86
2022/07/02 00:47:44;;;;;;;9.90;1.15;;;;;;;13.87;70.41;101504.81;4965577;28;20043;-85
2022/07/02 00:50:11;;;;;;;0.75;0.75;;;;;;;13.86;70.57;101505.72;4959447;28;20078;-86
2022/07/02 00:52:38;;;;;;;2.75;1.27;;;;;;;13.84;70.83;101504.84;4987332;28;20078;-87
2022/07/02 00:55:06;;;;;;;2.60;1.10;;;;;;;13.80;70.75;101508.38;4974804;28;20046;-88
2022/07/02 00:57:33;;;;;;;1.65;0.60;;;;;;;13.74;70.87;101506.69;4978891;28;20116;-88
2022/07/02 01:00:01;;;;;;;1.30;0.70;;;;;;;13.68;71.47;101504.97;4966624;28;20097;-88
2022/07/02 01:02:28;;;;;;;0.80;0.80;;;;;;;13.63;71.57;101506.75;4984536;28;20046;-87
2022/07/02 01:04:56;;;;;;;1.67;1.00;;;;;;;13.57;71.89;101510.31;4994681;28;20051;-88
2022/07/02 01:07:24;;;;;;;4.00;1.10;;;;;;;13.51;72.36;101507.72;4982094;28;20089;-88
2022/07/02 01:12:41;;;;;;;1.35;1.13;;;;;;;13.39;73.12;101511.31;4988098;28;20084;-89
2022/07/02 01:15:12;;;;;;;2.75;1.98;;;;;;;13.37;73.66;101509.59;4995989;28;20058;-88
2022/07/02 01:17:39;;;;;;;4.00;3.10;;;;;;;13.30;74.07;101515.75;4979765;28;20039;-90
2022/07/02 01:20:07;;;;;;;3.45;1.80;;;;;;;13.32;74.27;101519.22;4993126;28;20050;-89
2022/07/02 01:22:39;;;;;;;1.90;1.80;;;;;;;13.28;74.33;101513.09;4977497;28;20050;-88
2022/07/02 01:25:13;;;;;;;2.72;1.48;;;;;;;13.28;74.24;101507.84;4984486;28;20046;-87
2022/07/02 01:27:42;;;;;;;4.97;1.83;;;;;;;13.24;74.72;101509.66;4985425;28;20101;-88
2022/07/02 01:30:10;;;;;;;2.10;1.25;;;;;;;13.21;74.65;101517.53;4990737;28;20050;-87
2022/07/02 01:32:37;;;;;;;2.15;1.40;;;;;;;13.17;75.24;101507.06;4954556;28;20053;-87
2022/07/02 01:35:08;;;;;;;1.25;1.15;;;;;;;13.13;75.31;101516.72;4980491;28;20054;-87
2022/07/02 01:37:39;;;;;;;1.60;1.48;;;;;;;13.08;75.79;101516.72;4984389;28;20153;-87
2022/07/02 01:40:10;;;;;;;3.03;1.50;;;;;;;13.06;75.96;101515.88;4971945;28;20070;-88
2022/07/02 01:42:37;;;;;;;1.75;1.20;;;;;;;13.01;76.31;101517.66;4969364;28;20505;-88
2022/07/02 01:45:08;;;;;;;1.70;1.58;;;;;;;12.96;76.96;101519.44;4999668;28;20069;-89
2022/07/02 01:47:39;;;;;;;2.85;1.83;;;;;;;12.95;77.31;101519.44;4976093;28;20060;-88
2022/07/02 01:50:07;;;;;;;3.83;2.58;;;;;;;12.91;77.51;101518.59;5010923;28;20085;-87
2022/07/02 01:52:35;;;;;;;3.47;1.48;;;;;;;12.85;77.96;101519.50;4996165;28;20050;-87
2022/07/02 01:55:05;;;;;;;1.50;1.40;;;;;;;12.82;78.42;101516.00;4980406;28;20153;-87
2022/07/02 01:57:35;;;;;;;2.08;1.92;;;;;;;12.80;78.55;101521.28;4996892;28;20587;-86
2022/07/02 02:00:13;;;;;;;3.65;1.85;;;;;;;12.77;78.95;101523.03;4985632;28;20085;-88
2022/07/02 02:02:43;;;;;;;2.83;1.48;;;;;;;12.70;78.79;101524.81;4985714;28;20540;-88
2022/07/02 02:05:13;;;;;;;1.98;1.50;;;;;;;12.65;79.37;101531.84;4980826;28;20039;-88
2022/07/02 02:07:41;;;;;;;1.88;1.45;;;;;;;12.57;79.44;101530.09;4981350;28;20038;-88
2022/07/02 02:10:09;;;;;;;1.58;1.40;;;;;;;12.54;80.01;101537.09;4981550;28;20137;-88
2022/07/02 02:12:36;;;;;;;2.78;1.33;;;;;;;12.50;80.32;101538.88;4982502;28;20046;-87
2022/07/02 02:15:08;;;;;;;4.50;2.00;;;;;;;12.48;80.77;101543.25;4995122;28;20299;-88
2022/07/02 02:17:35;;;;;;;1.85;1.10;;;;;;;12.47;80.77;101548.53;4998554;28;20038;-89
2022/07/02 02:20:01;;;;;;;2.40;1.30;;;;;;;12.42;81.04;101540.63;4980532;28;20042;-89
2022/07/02 02:22:28;;;;;;;1.70;1.50;;;;;;;12.41;81.37;101545.03;4979868;28;20042;-87
2022/07/02 02:24:54;;;;;;;1.85;1.60;;;;;;;12.43;81.48;101537.13;4975423;28;20539;-87
2022/07/02 02:27:21;;;;;;;1.80;1.42;;;;;;;12.43;82.23;101528.41;4964427;28;20054;-87
2022/07/02 02:29:48;;;;;;;2.60;1.98;;;;;;;12.41;82.65;101539.78;4983011;28;20050;-88
2022/07/02 02:32:16;;;;;;;1.98;1.55;;;;;;;12.40;82.83;101539.78;4965327;28;20076;-87
2022/07/02 02:34:44;;;;;;;4.10;1.55;;;;;;;12.37;83.49;101539.78;4992259;28;20124;-87
2022/07/02 02:37:11;;;;;;;2.03;1.77;;;;;;;12.33;83.88;101540.66;4997725;28;20046;-87
2022/07/02 02:39:38;;;;;;;2.25;1.60;;;;;;;12.28;84.39;101535.44;4968017;28;20056;-87
2022/07/02 02:42:07;;;;;;;1.85;1.50;;;;;;;12.28;84.57;101531.91;4984850;28;20779;-87
2022/07/02 02:44:34;;;;;;;2.80;2.17;;;;;;;12.26;85.08;101533.69;4996251;28;20050;-87
2022/07/02 02:47:02;;;;;;;2.50;2.10;;;;;;;12.24;84.48;101536.28;4983572;28;20074;-87
2022/07/02 02:49:29;;;;;;;2.10;2.00;;;;;;;12.24;84.90;101541.53;4997169;28;20722;-88
2022/07/02 02:51:56;;;;;;;2.20;2.00;;;;;;;12.22;85.60;101541.56;4975059;28;20138;-88
2022/07/02 02:54:25;;;;;;;2.28;2.15;;;;;;;12.20;85.58;101548.56;4956180;28;20051;-86
2022/07/02 02:56:52;;;;;;;2.05;1.88;;;;;;;12.18;86.02;101546.81;4960350;28;20043;-88
2022/07/02 02:59:19;;;;;;;5.47;2.20;;;;;;;12.15;86.36;101546.81;4972694;28;20058;-87
2022/07/02 03:01:46;;;;;;;2.28;2.03;;;;;;;12.13;85.90;101551.22;4960360;28;20680;-86
2022/07/02 03:04:13;;;;;;;3.65;2.50;;;;;;;12.08;86.66;101552.09;4953810;28;20543;-86
2022/07/02 03:06:40;;;;;;;3.75;2.67;;;;;;;12.07;87.10;101558.22;4948459;28;20055;-86
2022/07/02 03:09:09;;;;;;;4.07;2.22;;;;;;;12.04;86.83;101560.81;4966763;28;20046;-88
2022/07/02 03:11:38;;;;;;;2.38;1.90;;;;;;;12.00;87.16;101564.31;4942715;28;20074;-87
2022/07/02 03:14:05;;;;;;;1.80;1.70;;;;;;;11.99;87.33;101570.44;4968160;28;20051;-86
2022/07/02 03:16:32;;;;;;;4.88;2.95;;;;;;;11.98;87.79;101573.06;4955518;28;20051;-87
2022/07/02 03:19:01;;;;;;;4.55;2.30;;;;;;;11.98;87.39;101571.34;4983021;28;20045;-87
2022/07/02 03:21:32;;;;;;;4.53;2.13;;;;;;;11.92;87.67;101577.41;4962354;28;20043;-85
2022/07/02 03:23:59;;;;;;;1.85;1.75;;;;;;;11.90;88.13;101579.16;4978474;28;20053;-87
2022/07/02 03:26:26;;;;;;;2.92;2.40;;;;;;;11.92;88.11;101573.91;4965638;28;20038;-87
2022/07/02 03:28:54;;;;;;;3.63;2.65;;;;;;;11.91;88.21;101585.28;4958687;28;20740;-88
2022/07/02 03:31:22;;;;;;;2.60;2.30;;;;;;;11.85;88.30;101573.03;4964110;28;20054;-87
2022/07/02 03:33:49;;;;;;;7.22;2.78;;;;;;;11.84;88.36;101584.41;4959613;28;20042;-86
2022/07/02 03:36:16;;;;;;;2.05;1.85;;;;;;;11.82;88.60;101591.38;4945708;28;20103;-85
2022/07/02 03:38:44;;;;;;;2.17;2.08;;;;;;;11.83;89.00;101592.28;4948133;28;20070;-87
2022/07/02 03:41:10;;;;;;;2.45;2.25;;;;;;;11.83;89.42;101598.38;4971275;28;20039;-88
2022/07/02 03:43:37;;;;;;;6.97;2.47;;;;;;;11.86;89.63;101598.41;4971491;28;20050;-87
2022/07/02 03:46:06;;;;;;;3.15;2.42;;;;;;;11.85;89.48;101598.38;4955697;28;20047;-91
2022/07/02 03:48:37;;;;;;;3.72;2.65;;;;;;;11.85;89.05;101599.28;4990723;28;20046;-87
2022/07/02 03:51:06;;;;;;;3.05;2.22;;;;;;;11.85;89.10;101598.38;4960397;28;20141;-89
2022/07/02 03:53:32;;;;;;;4.57;3.30;;;;;;;11.86;89.54;101600.13;5014246;28;20060;-88
2022/07/02 03:55:59;;;;;;;4.72;3.95;;;;;;;11.89;89.22;101600.16;5005010;28;20034;-88
2022/07/02 03:58:28;;;;;;;5.90;2.95;;;;;;;11.92;89.00;101595.78;4981730;28;20034;-87
2022/07/02 04:01:07;;;;;;;4.32;2.78;;;;;;;11.99;88.95;101593.19;4990058;28;20113;-87
2022/07/02 04:03:35;;;;;;;5.40;2.47;;;;;;;12.05;88.41;101604.56;4986619;28;20049;-86
2022/07/02 04:06:03;;;;;;;2.53;2.28;;;;;;;12.13;88.30;101595.81;4984692;28;20052;-88
2022/07/02 04:08:33;;;;;;;2.72;2.30;;;;;;;12.20;87.91;101605.44;4971525;28;20049;-87
2022/07/02 04:11:01;;;;;;;6.63;2.17;;;;;;;12.26;87.25;101608.06;4969911;28;20101;-88
2022/07/02 04:16:09;;;;;;;2.25;2.15;;;;;;;12.44;86.50;101611.53;4976848;28;20523;-85
2022/07/02 04:18:37;;;;;;;3.03;2.72;;;;;;;12.51;86.08;101613.28;4991896;28;20054;-87
2022/07/02 04:21:05;;;;;;;4.63;2.30;;;;;;;12.59;85.48;101608.88;5004055;28;20049;-88
2022/07/02 04:23:32;;;;;;;4.30;2.75;;;;;;;12.68;85.12;101615.88;4967987;28;20092;-88
2022/07/02 04:25:58;;;;;;;4.03;2.47;;;;;;;12.76;84.30;101607.97;4988725;28;20046;-88
2022/07/02 04:28:26;;;;;;;2.38;2.15;;;;;;;12.82;83.87;101606.19;4989782;28;20496;-88
2022/07/02 04:30:58;;;;;;;4.32;2.35;;;;;;;12.89;83.13;101612.31;4990749;28;20124;-88
2022/07/02 04:33:28;;;;;;;2.63;2.03;;;;;;;13.00;82.82;101612.28;5004710;28;20045;-88
2022/07/02 04:35:55;;;;;;;4.90;2.25;;;;;;;13.09;82.34;101620.16;4987676;28;20053;-88
2022/07/02 04:38:22;;;;;;;2.30;2.10;;;;;;;13.18;81.79;101611.31;4987479;28;20049;-87
2022/07/02 04:40:50;;;;;;;4.07;2.45;;;;;;;13.26;81.31;101611.28;5001391;28;20052;-88
2022/07/02 04:43:17;;;;;;;2.67;2.45;;;;;;;13.35;80.63;101612.13;4985516;28;20084;-88
2022/07/02 04:45:44;;;;;;;3.30;2.03;;;;;;;13.44;80.09;101611.25;5001608;28;20053;-88
2022/07/02 04:48:10;;;;;;;2.92;1.90;;;;;;;13.54;79.34;101612.91;5002392;28;20107;-88
2022/07/02 04:50:44;;;;;;;2.70;2.33;;;;;;;13.62;78.89;101620.75;4998225;28;20056;-89
2022/07/02 04:53:13;;;;;;;3.70;2.83;;;;;;;13.69;78.24;101617.22;4998834;28;20938;-88
2022/07/02 04:55:43;;;;;;;4.10;3.70;;;;;;;13.78;77.74;101615.41;4966879;28;20046;-86
2022/07/02 04:58:09;;;;;;;3.70;3.40;;;;;;;13.87;77.52;101616.22;4982243;28;20049;-86
2022/07/02 05:00:36;;;;;;;3.45;3.17;;;;;;;13.97;77.16;101610.91;4985020;28;20050;-85
2022/07/02 05:03:03;;;;;;;2.90;2.45;;;;;;;14.07;76.47;101612.56;4978171;28;20087;-86
2022/07/02 05:05:30;;;;;;;3.83;3.10;;;;;;;14.14;76.23;101606.34;4980227;28;20550;-86
2022/07/02 05:07:57;;;;;;;8.77;3.10;;;;;;;14.19;76.00;101612.47;4995143;28;20045;-86
2022/07/02 05:10:24;;;;;;;3.20;2.80;;;;;;;14.25;75.60;101615.94;4978954;28;20052;-87
2022/07/02 05:12:52;;;;;;;6.68;2.55;;;;;;;14.30;75.28;101620.28;4987345;28;20053;-87
2022/07/02 05:15:19;;;;;;;4.47;2.22;;;;;;;14.34;75.02;101621.09;5007303;28;20144;-87
2022/07/02 05:17:46;;;;;;;4.15;2.42;;;;;;;14.37;74.65;101623.72;4974973;28;20133;-87
2022/07/02 05:20:16;;;;;;;5.57;2.78;;;;;;;14.43;74.70;101635.97;4990605;28;20046;-87
2022/07/02 05:22:46;;;;;;;2.30;1.90;;;;;;;14.49;74.04;101636.78;4991485;28;20079;-86
2022/07/02 05:25:13;;;;;;;2.38;1.80;;;;;;;14.56;73.99;101632.31;4993026;28;20057;-87
2022/07/02 05:27:40;;;;;;;2.47;1.40;;;;;;;14.64;73.47;101633.16;5008921;28;20053;-87
2022/07/02 05:30:07;;;;;;;2.90;1.67;;;;;;;14.70;73.52;101633.06;4994453;28;20129;-86
2022/07/02 05:32:34;;;;;;;2.75;1.45;;;;;;;14.77;72.83;101633.91;5009387;28;20153;-87
2022/07/02 05:35:04;;;;;;;3.65;1.95;;;;;;;14.86;72.83;101635.56;4995847;28;20034;-87
2022/07/02 05:37:31;;;;;;;2.38;1.50;;;;;;;14.91;72.44;101644.28;4994898;28;20033;-86
2022/07/02 05:39:58;;;;;;;1.85;1.35;;;;;;;14.96;72.30;101642.47;4995528;28;20034;-86
2022/07/02 05:42:24;;;;;;;2.45;1.60;;;;;;;15.05;71.94;101641.50;5011430;28;20133;-87
2022/07/02 05:44:51;;;;;;;2.17;2.03;;;;;;;15.14;71.52;101640.53;4985497;28;20056;-87
2022/07/02 05:47:19;;;;;;;5.70;2.47;;;;;;;15.19;71.45;101644.84;5002737;28;20037;-88
2022/07/02 05:49:50;;;;;;;6.93;1.67;;;;;;;15.26;71.26;101653.53;4979209;28;20054;-87
2022/07/02 05:52:19;;;;;;;1.90;1.13;;;;;;;15.34;70.90;101648.19;4972853;28;20051;-87
2022/07/02 05:54:46;;;;;;;1.98;1.10;;;;;;;15.41;70.62;101652.50;4963530;28;20050;-87
2022/07/02 05:57:14;;;;;;;2.88;1.10;;;;;;;15.51;70.08;101650.59;4969733;28;20156;-87
2022/07/02 05:59:41;;;;;;;1.52;0.98;;;;;;;15.59;69.40;101651.38;4967396;28;20509;-88
2022/07/02 06:02:08;;;;;;;4.70;1.30;;;;;;;15.68;69.23;101663.56;4968715;28;20047;-87
2022/07/02 06:04:37;;;;;;;2.10;0.70;;;;;;;15.77;69.10;101652.84;4970212;28;20051;-90
2022/07/02 06:09:49;;;;;;;5.65;0.60;;;;;;;15.89;67.67;101659.75;4968192;28;20486;-86
2022/07/02 06:12:17;;;;;;;2.95;1.05;;;;;;;15.94;67.33;101654.41;4953333;28;20465;-86
2022/07/02 06:14:47;;;;;;;1.08;0.88;;;;;;;16.04;66.34;101664.81;4970503;28;20070;-87
2022/07/02 06:17:14;;;;;;;1.75;0.77;;;;;;;16.16;65.00;101655.81;4985305;28;20081;-87
2022/07/02 06:19:42;;;;;;;3.08;0.85;;;;;;;16.21;65.07;101656.59;4966581;28;20141;-85
2022/07/02 06:22:11;;;;;;;2.30;1.13;;;;;;;16.26;65.30;101653.03;4949840;28;20047;-88
2022/07/02 06:24:39;;;;;;;1.52;0.75;;;;;;;16.31;65.37;101657.34;4947619;28;20110;-88
2022/07/02 06:27:07;;;;;;;3.95;1.92;;;;;;;16.38;65.24;101658.97;4964629;28;20050;-87
2022/07/02 06:29:34;;;;;;;1.23;1.08;;;;;;;16.46;64.66;101650.91;4967465;28;20123;-87
2022/07/02 06:32:06;;;;;;;0.75;0.65;;;;;;;16.52;64.59;101661.38;4967075;28;20051;-88
2022/07/02 06:34:32;;;;;;;0.88;0.88;;;;;;;16.59;64.61;101658.63;4963936;28;20091;-87
2022/07/02 06:37:00;;;;;;;2.65;0.93;;;;;;;16.67;64.30;101668.19;4947919;28;20075;-87
2022/07/02 06:39:27;;;;;;;4.75;0.77;;;;;;;16.79;63.58;101666.19;4963909;28;20314;-86
2022/07/02 06:44:41;;;;;;;1.10;0.73;;;;;;;16.96;62.60;101666.78;4965497;28;20035;-87
2022/07/02 06:47:08;;;;;;;1.38;0.73;;;;;;;17.10;61.66;101670.94;4967582;28;20054;-88
2022/07/02 06:49:34;;;;;;;3.70;0.65;;;;;;;17.19;60.60;101670.75;4965312;28;20065;-86
2022/07/02 06:52:02;;;;;;;1.00;0.77;;;;;;;17.22;60.83;101667.16;4958542;28;20050;-87
2022/07/02 06:54:28;;;;;;;3.47;0.40;;;;;;;17.32;60.54;101666.94;4980822;28;20050;-87
2022/07/02 06:56:55;;;;;;;2.47;0.73;;;;;;;17.39;60.52;101665.06;4983706;28;20501;-88
2022/07/02 06:59:22;;;;;;;0.68;0.40;;;;;;;17.43;59.42;101669.38;4999107;28;20062;-86
2022/07/02 07:01:49;;;;;;;1.50;0.40;;;;;;;17.51;59.60;101670.06;4984805;28;20073;-84
2022/07/02 07:04:16;;;;;;;2.83;0.55;;;;;;;17.55;58.93;101673.53;5000136;28;20050;-86
2022/07/02 07:06:43;;;;;;;3.28;0.50;;;;;;;17.66;58.67;101678.56;4986746;28;20121;-86
2022/07/02 07:09:10;;;;;;;2.17;0.40;;;;;;;17.75;58.50;101677.50;4986309;28;20056;-87
2022/07/02 07:11:37;;;;;;;0.95;0.55;;;;;;;17.85;57.42;101673.75;4966815;28;20108;-86
2022/07/02 07:14:04;;;;;;;4.05;1.85;;;;;;;17.93;57.03;101673.59;4963332;28;20791;-89
2022/07/02 07:16:32;;;;;;;1.67;0.70;;;;;;;17.98;55.81;101672.56;4967252;28;20497;-90
2022/07/02 07:18:59;;;;;;;0.80;0.40;;;;;;;18.05;56.08;101675.09;4981375;28;20068;-87
2022/07/02 07:21:29;;;;;;;1.50;0.40;;;;;;;18.15;55.06;101674.81;4974208;28;20137;-88
2022/07/02 07:23:56;;;;;;;1.65;0.40;;;;;;;18.19;55.52;101673.81;4982165;28;20038;-88
2022/07/02 07:26:23;;;;;;;4.95;0.57;;;;;;;18.35;54.94;101678.75;4981190;28;20074;-86
2022/07/02 07:28:49;;;;;;;0.77;0.50;;;;;;;18.68;54.05;101678.78;4983450;28;20065;-86
2022/07/02 07:31:20;;;;;;;0.60;0.60;;;;;;;19.15;52.23;101683.72;4972324;28;20215;-87
2022/07/02 07:33:54;;;;;;;2.95;0.55;;;;;;;19.66;51.54;101683.13;4991254;28;20062;-87
2022/07/02 07:36:26;;;;;;;2.28;0.50;;;;;;;20.32;50.51;101688.16;5003439;28;20045;-88
2022/07/02 07:38:59;;;;;;;2.03;0.52;;;;;;;21.07;49.47;101682.97;5006159;28;20125;-89
2022/07/02 07:41:32;;;;;;;1.45;0.57;;;;;;;21.82;47.21;101681.88;4993471;28;20058;-88
2022/07/02 07:44:16;;;;;;;2.28;0.40;;;;;;;22.45;44.21;101676.66;4994467;28;20034;-90
2022/07/02 07:46:50;;;;;;;2.35;0.65;;;;;;;23.12;43.53;101679.94;5010821;28;20050;-89
2022/07/02 07:51:57;;;;;;;3.63;0.50;;;;;;;24.30;42.09;101685.13;4993742;28;20058;-87
2022/07/02 07:54:24;;;;;;;2.60;0.98;;;;;;;24.73;39.01;101680.28;4967404;28;20073;-87
2022/07/02 07:56:51;;;;;;;1.67;0.28;;;;;;;24.76;39.17;101674.75;4998311;28;20073;-88
2022/07/02 07:59:20;;;;;;;1.35;0.22;;;;;;;24.92;38.85;101676.63;4968057;28;20750;-86
2022/07/02 08:01:47;;;;;;;2.00;0.73;;;;;;;25.17;37.85;101672.63;5001426;28;20112;-85
2022/07/02 08:04:14;;;;;;;1.35;0.68;;;;;;;25.51;36.94;101676.16;4983331;28;20039;-87
2022/07/02 08:06:41;;;;;;;0.65;0.32;;;;;;;26.03;35.31;101673.16;4983423;28;20038;-89
2022/07/02 08:09:10;;;;;;;1.02;0.60;;;;;;;26.19;34.78;101683.03;4999130;28;20043;-86
2022/07/02 08:11:44;;;;;;;3.58;0.30;;;;;;;26.41;34.61;101691.56;4985136;28;20564;-86
2022/07/02 08:14:14;;;;;;;0.63;0.32;;;;;;;26.83;33.37;101689.09;4968535;28;20394;-88
2022/07/02 08:16:41;;;;;;;1.20;0.40;;;;;;;26.76;33.18;101687.72;4984344;28;20129;-87
2022/07/02 08:19:11;;;;;;;0.93;0.50;;;;;;;25.95;34.21;101688.84;4998113;28;20118;-89
2022/07/02 08:21:38;;;;;;;1.70;0.57;;;;;;;24.84;36.04;101689.56;4971259;28;20401;-88
2022/07/02 08:24:06;;;;;;;3.15;0.63;;;;;;;24.08;37.16;101682.66;4997598;28;20911;-87
2022/07/02 08:26:39;;;;;;;3.20;0.50;;;;;;;23.53;38.44;101686.16;4983252;28;20042;-88
2022/07/02 08:29:06;;;;;;;1.17;0.52;;;;;;;23.38;38.88;101688.59;4986974;28;20392;-87
2022/07/02 08:31:33;;;;;;;1.08;0.40;;;;;;;23.18;39.58;101694.88;4982939;28;20050;-86
2022/07/02 08:34:05;;;;;;;1.63;0.63;;;;;;;23.28;39.72;101689.97;4980619;28;20050;-86
2022/07/02 08:36:34;;;;;;;0.82;0.38;;;;;;;23.12;39.53;101693.31;4996063;28;20053;-88
2022/07/02 08:39:01;;;;;;;1.92;0.50;;;;;;;22.89;39.21;101690.81;4998878;28;20034;-87
2022/07/02 08:41:31;;;;;;;0.88;0.80;;;;;;;22.88;39.42;101689.94;4964799;28;20388;-87
2022/07/02 08:44:03;;;;;;;1.42;0.32;;;;;;;23.00;38.94;101693.00;4965647;28;20736;-87
2022/07/02 08:49:14;;;;;;;2.75;1.15;;;;;;;23.03;39.09;101687.53;4987374;28;20050;-87
2022/07/02 08:51:44;;;;;;;2.90;0.50;;;;;;;23.06;38.66;101685.59;4983008;28;20057;-88
2022/07/02 08:54:14;;;;;;;3.92;0.50;;;;;;;22.99;38.80;101680.59;4981728;28;20360;-86
2022/07/02 08:56:43;;;;;;;1.17;0.50;;;;;;;22.90;37.47;101661.34;4965617;28;20503;-86
2022/07/02 08:59:10;;;;;;;2.15;0.57;;;;;;;22.82;37.21;101663.50;4967738;28;20093;-86
2022/07/02 09:01:38;;;;;;;2.13;0.68;;;;;;;23.29;36.72;101665.00;4982409;28;20089;-87
2022/07/02 09:04:06;;;;;;;0.82;0.50;;;;;;;23.72;35.33;101670.97;4983267;28;20069;-90
2022/07/02 09:06:36;;;;;;;1.13;0.40;;;;;;;24.04;35.65;101673.03;4967473;28;20074;-87
2022/07/02 09:09:03;;;;;;;0.98;0.60;;;;;;;24.54;34.93;101660.72;4999085;28;20046;-87
2022/07/02 09:11:32;;;;;;;1.10;0.50;;;;;;;24.57;34.89;101657.88;5000071;28;20050;-90
2022/07/02 09:14:03;;;;;;;2.40;0.30;;;;;;;24.75;34.16;101654.25;4968779;28;20053;-88
2022/07/02 09:16:33;;;;;;;1.38;0.40;;;;;;;24.80;34.50;101659.38;4985856;28;20042;-88
2022/07/02 09:19:01;;;;;;;3.95;0.60;;;;;;;25.67;33.40;101660.03;4986839;28;20042;-87
2022/07/02 09:21:53;;;;;;;0.45;0.32;;;;;;;27.35;31.35;101643.75;4970339;28;20050;-87
2022/07/02 09:24:35;;;;;;;2.65;0.32;;;;;;;28.97;29.10;101643.69;4984450;28;20150;-86
2022/07/02 09:27:08;;;;;;;0.80;0.25;;;;;;;30.22;28.28;101644.44;4985383;28;20065;-87
2022/07/02 09:29:58;;;;;;;2.35;0.70;;;;;;;31.27;26.59;101647.03;4998722;28;20054;-90
2022/07/02 09:32:25;;;;;;;2.33;0.50;;;;;;;32.48;25.72;101643.28;4978508;28;20058;-87
2022/07/02 09:34:54;;;;;;;1.63;0.43;;;;;;;33.56;23.96;101632.03;4973145;28;20056;-87
2022/07/02 09:37:28;;;;;;;1.88;0.45;;;;;;;34.07;23.51;101632.78;5000361;28;20454;-87
2022/07/02 09:39:57;;;;;;;2.25;0.65;;;;;;;34.40;23.31;101630.63;4971393;28;20047;-87
2022/07/02 09:42:30;;;;;;;3.35;0.57;;;;;;;34.55;22.44;101626.44;5000646;28;20046;-88
2022/07/02 09:44:59;;;;;;;0.63;0.40;;;;;;;32.98;24.27;101623.59;4990729;28;20073;-90
2022/07/02 09:47:48;;;;;;;1.30;0.50;;;;;;;31.18;25.94;101632.44;4993183;28;20050;-90
2022/07/02 09:50:23;;;;;;;3.33;1.10;;;;;;;29.90;27.49;101626.16;4990411;28;20038;-88
2022/07/02 09:53:01;;;;;;;1.50;0.60;;;;;;;29.59;28.27;101624.88;4952037;28;1444235;-89
2022/07/02 09:55:33;;;;;;;2.15;0.60;;;;;;;31.01;26.67;101619.38;4973207;28;20758;-89
2022/07/02 09:58:03;;;;;;;0.55;0.45;;;;;;;32.59;24.72;101617.09;5006041;28;20078;-88
2022/07/02 10:00:50;;;;;;;0.90;0.90;;;;;;;33.41;23.33;101616.13;4988623;28;20046;-88
2022/07/02 10:03:17;;;;;;;1.63;0.20;;;;;;;33.99;23.10;101619.06;4987942;28;20046;-87
2022/07/02 10:05:54;;;;;;;1.05;0.40;;;;;;;35.41;21.56;101611.72;4990394;28;20404;-88
2022/07/02 10:08:22;;;;;;;2.60;0.32;;;;;;;35.83;21.20;101623.00;4987555;28;20058;-87
2022/07/02 10:10:54;;;;;;;2.15;0.50;;;;;;;35.59;20.58;101617.19;4986683;28;20050;-89
2022/07/02 10:13:20;;;;;;;2.03;0.50;;;;;;;35.61;21.09;101615.16;4957838;28;20077;-90
2022/07/02 10:16:04;;;;;;;1.70;0.20;;;;;;;35.99;19.97;101612.28;4983599;28;20387;-92
2022/07/02 10:18:32;;;;;;;2.03;0.20;;;;;;;36.39;20.44;101610.88;4999017;28;20133;-92
2022/07/02 10:21:00;;;;;;;0.20;0.20;;;;;;;37.25;19.58;101609.06;5002947;28;20058;-86
2022/07/02 10:23:30;;;;;;;0.75;0.25;;;;;;;35.82;20.18;101610.41;4987812;28;20054;-91
2022/07/02 10:26:06;;;;;;;1.10;0.32;;;;;;;35.06;21.04;101615.22;5001963;28;20086;-90
2022/07/02 10:28:34;;;;;;;1.10;0.60;;;;;;;35.71;20.47;101609.63;5007258;28;20077;-89
2022/07/02 10:31:02;;;;;;;1.52;0.47;;;;;;;35.02;20.85;101608.34;4981891;28;20541;-88
2022/07/02 10:33:44;;;;;;;0.75;0.40;;;;;;;34.04;21.67;101598.63;5006220;28;20516;-88
2022/07/02 10:36:13;;;;;;;0.77;0.35;;;;;;;34.95;20.78;101599.94;4978850;28;20110;-90
2022/07/02 10:38:41;;;;;;;1.95;0.57;;;;;;;35.40;20.31;101593.69;4993884;28;20498;-87
2022/07/02 10:41:12;;;;;;;1.70;0.30;;;;;;;36.09;19.53;101585.78;4995305;28;20504;-87
2022/07/02 10:43:41;;;;;;;1.33;0.35;;;;;;;36.17;19.35;101587.72;4980150;28;20073;-93
2022/07/02 10:46:13;;;;;;;1.48;0.50;;;;;;;34.66;20.12;101590.03;4991965;28;20109;-90
2022/07/02 10:48:57;;;;;;;0.65;0.65;;;;;;;33.70;20.93;101588.19;4976733;28;20046;-89
2022/07/02 10:51:28;;;;;;;0.40;0.25;;;;;;;33.18;22.01;101587.50;4987650;28;20681;-89
2022/07/02 10:54:07;;;;;;;1.77;0.22;;;;;;;34.28;20.88;101581.81;4956084;28;20063;-88
2022/07/02 10:56:51;;;;;;;0.95;0.20;;;;;;;35.31;20.56;101586.41;4971114;28;20043;-89
2022/07/02 11:02:11;;;;;;;0.88;0.35;;;;;;;34.83;20.62;101588.38;4982918;28;20497;-88
2022/07/02 11:04:40;;;;;;;3.25;0.52;;;;;;;34.00;21.69;101585.47;4952523;28;20035;-92
2022/07/02 11:07:12;;;;;;;0.65;0.50;;;;;;;34.89;21.05;101593.25;4969325;28;20042;-86
2022/07/02 11:13:20;;;;;;;0.70;0.40;;;;;;;34.88;19.88;101585.25;4956288;28;20045;-89
2022/07/02 11:15:57;;;;;;;;;;;;;;;;;;;;;
2022/07/02 11:18:34;;;;;;;0.65;0.43;;;;;;;34.06;21.36;101579.47;4958870;28;20061;-90
2022/07/02 11:21:05;;;;;;;0.90;0.40;;;;;;;33.17;21.75;101578.53;4970847;28;20051;-91
2022/07/02 11:23:34;;;;;;;0.65;0.50;;;;;;;32.70;22.57;101573.66;4971045;28;20052;-91
2022/07/02 11:26:04;;;;;;;2.92;0.55;;;;;;;33.74;22.08;101572.44;4953699;28;20154;-88
2022/07/02 11:28:35;;;;;;;2.45;0.60;;;;;;;35.04;20.48;101573.69;4954706;28;20082;-89
2022/07/02 11:31:08;;;;;;;5.30;0.67;;;;;;;36.47;19.48;101569.19;4954794;28;20050;-90
2022/07/02 11:33:40;;;;;;;2.47;0.50;;;;;;;37.70;18.12;101563.22;4959473;28;20053;-87
2022/07/02 11:36:09;;;;;;;0.57;0.40;;;;;;;38.38;17.75;101557.53;4969481;28;20133;-90
2022/07/02 11:41:29;;;;;;;1.17;0.30;;;;;;;38.71;17.83;101543.72;4971856;28;20051;-90
2022/07/02 12:03:55;;;;;;;0.77;0.30;;;;;;;35.73;19.72;101522.31;5513421;23;20044;-88
2022/07/02 12:06:28;;;;;;;1.15;0.22;;;;;;;35.52;19.79;101507.16;4889254;29;20079;-85
2022/07/02 12:08:58;;;;;;;1.38;0.32;;;;;;;35.07;20.13;101513.50;4887440;29;20048;-86
2022/07/02 12:11:25;;;;;;;1.40;0.40;;;;;;;34.13;20.91;101515.38;4887702;29;20052;-86
2022/07/02 12:13:54;;;;;;;0.40;0.40;;;;;;;33.40;21.51;101502.31;4887521;29;20099;-85
2022/07/02 12:16:27;;;;;;;3.00;0.30;;;;;;;32.37;22.27;101494.31;4906151;29;20052;-87
2022/07/02 12:19:05;;;;;;;2.65;0.60;;;;;;;32.94;21.89;101497.38;4888580;29;20054;-88
2022/07/02 12:21:35;;;;;;;5.03;0.60;;;;;;;34.98;20.26;101492.69;4887508;29;20080;-88